Terminal Aerodrome Forecast
Issued by NWS

Home | Current Version | Previous Version | Text Only | Print | Product List | Glossary On
Versions: 1 2 3 4 5 6 7 8 9 10 11 12 13 14 15 16 17
000
FTUS43 KMPX 142337
TAFRNH
TAF
KRNH 142337Z 1500/1524 29006KT P6SM -SHSN OVC018
     FM150300 29006KT P6SM OVC022
     FM150800 29006KT P6SM BKN035
     FM151200 29005KT P6SM BKN030
     FM151600 23004KT P6SM -SHSN OVC015
     FM152200 21004KT P6SM OVC020=

USA.gov is the U.S. government's official web portal to all federal, state and local government web resources and services.